Latest Weather Observations for Canterbury

IDN60801

Issued at 2:32 pm EST Tuesday 7 July 2015 (issued every 30 minutes, with the page automatically refreshed every 10 minutes)

About weather observations | Map of weather stations | Latest weather observations for NSW | Other Formats
Station Details ID: 066194 Name: CANTERBURY RACECOURSE AWS Lat: -33.91 Lon: 151.11 Height: 3.0 m
Data from the previous 72 hours. | See also: Recent months at Canterbury
Date/Time
EST
Temp
°C
App
Temp
°C
Dew
Point
Rel
Hum
%
Delta-T
°C
Wind Press
QNH
hPa
Press
MSL
hPa
Rain
since 9 am
mm
Dir
 
Spd
km/h
Gust
km/h
Spd
kts
Gust
kts
07/02:30pm 13.5 9.9 6.8 64 3.2 SSW 15 26 8 14 - - 0.0
07/02:00pm 13.2 8.5 6.1 62 3.4 S 20 28 11 15 - - 0.0
07/01:30pm 13.7 9.6 6.1 60 3.6 S 17 28 9 15 - - 0.0
07/01:00pm 14.3 11.0 6.2 58 3.9 S 13 20 7 11 - - 0.0
07/12:30pm 14.1 10.8 6.5 60 3.7 S 13 22 7 12 - - 0.0
07/12:00pm 13.6 10.4 6.7 63 3.3 SSW 13 28 7 15 - - 0.0
07/11:30am 13.1 9.0 6.2 63 3.3 S 17 22 9 12 - - 0.0
07/11:00am 13.3 8.8 5.9 61 3.5 SSW 19 30 10 16 - - 0.0
07/10:30am 13.5 9.2 3.3 50 4.6 WSW 15 22 8 12 - - 0.0
07/10:00am 12.9 8.4 4.1 55 4.0 WSW 17 24 9 13 - - 0.0
07/09:30am 11.8 7.9 3.3 56 3.7 WSW 13 24 7 13 - - 0.0
07/09:00am 10.6 6.7 3.4 61 3.1 W 13 24 7 13 - - 0.0
07/08:30am 9.1 5.2 3.3 67 2.5 WSW 13 20 7 11 - - 0.0
07/08:00am 6.3 3.5 3.1 80 1.3 WNW 7 9 4 5 - - 0.0
07/07:30am 4.0 1.0 2.2 88 0.7 WNW 7 9 4 5 - - 0.0
07/07:00am 4.1 1.1 0.8 79 1.3 NW 6 7 3 4 - - 0.0
07/06:30am 4.6 1.6 1.8 82 1.1 NW 7 11 4 6 - - 0.0
07/06:00am 5.0 1.5 1.3 77 1.5 NW 9 13 5 7 - - 0.0
07/05:30am 4.9 1.4 1.2 77 1.4 NNW 9 11 5 6 - - 0.0
07/05:00am 5.0 1.5 1.3 77 1.5 NNW 9 9 5 5 - - 0.0
07/04:30am 4.5 1.4 1.2 79 1.3 NNW 7 9 4 5 - - 0.0
07/04:00am 4.4 2.6 1.1 79 1.3 CALM 0 6 0 3 - - 0.0
07/03:30am 4.8 1.8 1.1 77 1.4 NW 6 9 3 5 - - 0.0
07/03:00am 5.6 2.7 1.2 73 1.7 NW 6 7 3 4 - - 0.0
07/02:30am 5.6 2.1 1.3 74 1.7 WNW 9 11 5 6 - - 0.0
07/02:00am 5.5 2.6 1.4 75 1.6 NNW 6 7 3 4 - - 0.0
07/01:30am 5.9 2.8 1.2 72 1.9 WNW 7 11 4 6 - - 0.0
07/01:00am 6.0 3.0 1.0 70 2.0 NW 6 9 3 5 - - 0.0
07/12:30am 6.4 3.4 0.9 68 2.2 WNW 6 9 3 5 - - 0.0
07/12:00am 6.5 3.3 1.0 68 2.2 W 7 13 4 7 - - 0.0
 
Date/Time
EST
Temp
°C
App
Temp
°C
Dew
Point
Rel
Hum
%
Delta-T
°C
Wind Press
QNH
hPa
Press
MSL
hPa
Rain
since 9 am
mm
Dir
 
Spd
km/h
Gust
km/h
Spd
kts
Gust
kts
06/11:30pm 6.7 3.5 0.6 65 2.4 WNW 7 9 4 5 - - 0.0
06/11:00pm 7.3 4.3 0.7 63 2.6 W 6 9 3 5 - - 0.0
06/10:30pm 7.9 4.3 0.9 61 2.8 W 9 13 5 7 - - 0.0
06/10:00pm 8.0 4.5 1.0 61 2.8 W 9 19 5 10 - - 0.0
06/09:30pm 8.3 5.1 0.8 59 3.0 WNW 7 13 4 7 - - 0.0
06/09:00pm 8.9 5.3 0.4 55 3.4 WNW 9 15 5 8 - - 0.0
06/08:30pm 9.4 5.4 0.3 53 3.7 W 11 20 6 11 - - 0.0
06/08:00pm 10.0 5.6 0.3 51 3.9 W 13 22 7 12 - - 0.0
06/07:30pm 10.3 5.9 0.3 50 4.1 W 13 20 7 11 - - 0.0
06/07:00pm 10.6 6.2 0.6 50 4.1 W 13 24 7 13 - - 0.0
06/06:30pm 10.9 6.5 0.6 49 4.2 W 13 20 7 11 - - 0.0
06/06:00pm 11.4 6.6 0.5 47 4.5 WSW 15 26 8 14 - - 0.0
06/05:30pm 12.0 7.7 0.8 46 4.7 WSW 13 28 7 15 - - 0.0
06/05:00pm 12.8 7.7 0.5 43 5.1 WSW 17 28 9 15 - - 0.0
06/04:30pm 14.0 8.5 0.6 40 5.7 WSW 19 24 10 13 - - 0.0
06/04:00pm 14.8 9.2 -0.1 36 6.3 WSW 19 30 10 16 - - 0.0
06/03:30pm 15.3 9.8 0.3 36 6.4 WSW 19 32 10 17 - - 0.0
06/03:00pm 15.5 10.0 0.5 36 6.4 SW 19 32 10 17 - - 0.0
06/02:30pm 15.7 10.5 -0.1 34 6.7 W 17 22 9 12 - - 0.0
06/02:00pm 15.7 11.7 0.7 36 6.5 WNW 11 19 6 10 - - 0.0
06/01:30pm 15.4 11.4 0.8 37 6.3 W 11 20 6 11 - - 0.0
06/01:00pm 14.8 9.9 1.7 41 5.7 WNW 17 32 9 17 - - 0.0
06/12:30pm 13.9 9.2 0.9 41 5.5 WNW 15 20 8 11 - - 0.0
06/12:00pm 13.1 8.1 1.1 44 5.1 W 17 22 9 12 - - 0.0
06/11:30am 12.4 7.3 0.8 45 4.9 W 17 24 9 13 - - 0.0
06/11:00am 11.9 7.2 1.0 47 4.6 W 15 24 8 13 - - 0.0
06/10:30am 11.1 6.0 0.8 49 4.3 W 17 28 9 15 - - 0.0
06/10:00am 10.6 6.4 1.7 54 3.7 W 13 22 7 12 - - 0.0
06/09:30am 9.8 6.8 2.2 59 3.2 NNW 7 11 4 6 - - 0.0
06/09:00am 8.0 5.4 0.7 60 2.9 NNW 4 9 2 5 - - 0.0
06/08:30am 6.1 2.8 0.4 67 2.2 NNW 7 11 4 6 - - 0.0
06/08:00am 4.0 0.7 0.3 77 1.4 NW 7 9 4 5 - - 0.0
06/07:30am 1.1 -2.1 -0.5 89 0.6 NNW 6 7 3 4 - - 0.0
06/07:00am 0.8 -1.3 -0.5 91 0.5 CALM 0 0 0 0 - - 0.0
06/06:30am 0.7 -2.1 -0.4 92 0.4 NW 4 6 2 3 - - 0.0
06/06:00am 0.9 -1.1 -0.2 92 0.4 CALM 0 0 0 0 - - 0.0
06/05:30am 1.4 -0.6 0.1 91 0.5 CALM 0 0 0 0 - - 0.0
06/05:00am 1.5 -0.6 -0.7 85 0.8 CALM 0 0 0 0 - - 0.0
06/04:30am 3.2 0.3 1.7 90 0.6 NW 6 7 3 4 - - 0.0
06/04:00am 2.8 -0.1 1.3 90 0.6 NW 6 6 3 3 - - 0.0
06/03:30am 3.9 1.0 2.6 91 0.5 NW 7 9 4 5 - - 0.0
06/03:00am 3.5 0.8 2.8 95 0.3 WNW 6 9 3 5 - - 0.0
06/02:30am 3.3 0.6 2.7 96 0.2 WNW 6 7 3 4 - - 0.0
06/02:12am 2.9 1.2 2.0 94 0.4 CALM 0 0 0 0 - - 0.0
06/02:00am 2.6 0.9 1.7 94 0.3 CALM 0 0 0 0 - - 0.0
06/01:52am 3.5 1.9 2.6 94 0.4 CALM 0 0 0 0 - - 0.0
06/01:30am 3.4 1.8 2.5 94 0.4 CALM 0 0 0 0 - - 0.0
06/01:00am 3.7 2.2 2.8 94 0.4 CALM 0 0 0 0 - - 0.0
06/12:30am 3.3 1.6 2.0 91 0.5 CALM 0 0 0 0 - - 0.0
06/12:00am 4.7 2.9 3.7 93 0.4 W 2 6 1 3 - - 0.0
 
Date/Time
EST
Temp
°C
App
Temp
°C
Dew
Point
Rel
Hum
%
Delta-T
°C
Wind Press
QNH
hPa
Press
MSL
hPa
Rain
since 9 am
mm
Dir
 
Spd
km/h
Gust
km/h
Spd
kts
Gust
kts
05/11:30pm 4.2 2.7 3.0 92 0.5 CALM 0 0 0 0 - - 0.0
05/11:00pm 4.7 3.3 3.5 92 0.5 CALM 0 0 0 0 - - 0.0
05/10:30pm 4.5 3.1 3.3 92 0.5 CALM 0 0 0 0 - - 0.0
05/10:00pm 4.5 3.0 3.2 91 0.5 CALM 0 0 0 0 - - 0.0
05/09:30pm 4.8 3.4 3.5 91 0.5 CALM 0 0 0 0 - - 0.0
05/09:00pm 5.3 4.0 4.0 91 0.5 CALM 0 0 0 0 - - 0.0
05/08:30pm 5.6 4.3 4.2 91 0.6 CALM 0 0 0 0 - - 0.0
05/08:00pm 5.9 4.7 4.4 90 0.6 CALM 0 0 0 0 - - 0.0
05/07:30pm 6.0 4.7 4.2 88 0.8 CALM 0 0 0 0 - - 0.0
05/07:00pm 6.8 5.6 4.8 87 0.9 CALM 0 0 0 0 - - 0.0
05/06:30pm 7.2 5.8 3.8 79 1.5 CALM 0 0 0 0 - - 0.0
05/06:00pm 8.0 6.6 3.5 73 1.9 CALM 0 0 0 0 - - 0.0
05/05:30pm 9.4 8.2 4.6 72 2.1 CALM 0 0 0 0 - - 0.0
05/05:00pm 11.2 9.8 3.7 60 3.3 CALM 0 0 0 0 - - 0.0
05/04:30pm 13.0 11.4 2.5 49 4.6 CALM 0 0 0 0 - - 0.0
05/04:00pm 16.3 14.1 0.8 35 6.7 WSW 2 6 1 3 - - 0.0
05/03:30pm 17.0 14.5 -1.1 29 7.6 NW 2 9 1 5 - - 0.0
05/03:00pm 17.1 13.9 -0.6 30 7.5 N 6 11 3 6 - - 0.0
05/02:30pm 17.4 15.0 -0.3 30 7.6 NNW 2 9 1 5 - - 0.0
05/02:00pm 16.7 13.6 1.2 35 6.8 WNW 7 13 4 7 - - 0.0
05/01:30pm 15.9 13.3 1.2 37 6.4 NNW 4 11 2 6 - - 0.0
05/01:00pm 15.4 12.1 2.2 41 5.9 NW 9 13 5 7 - - 0.0
05/12:30pm 14.8 11.6 1.0 39 5.9 NW 7 11 4 6 - - 0.0
05/12:00pm 13.8 10.6 3.0 48 4.8 WNW 9 13 5 7 - - 0.0
05/11:30am 12.7 9.4 2.3 49 4.5 NW 9 13 5 7 - - 0.0
05/11:00am 11.3 7.6 2.1 53 3.9 WNW 11 15 6 8 - - 0.0
05/10:30am 10.5 6.7 1.9 55 3.6 NW 11 15 6 8 - - 0.0
05/10:00am 9.6 6.1 1.5 57 3.4 NW 9 17 5 9 - - 0.0
05/09:30am 8.3 4.9 1.9 64 2.6 WNW 9 15 5 8 - - 0.0
05/09:00am 7.0 3.3 2.1 71 2.0 NW 11 15 6 8 - - 0.0
05/08:30am 5.9 2.5 2.0 76 1.6 NW 9 11 5 6 - - 0.0
05/08:00am 4.2 1.3 1.4 82 1.1 NW 6 11 3 6 - - 0.0
05/07:30am 2.8 1.0 1.3 90 0.6 CALM 0 0 0 0 - - 0.0
05/07:00am 2.6 -0.4 1.1 90 0.6 NW 6 7 3 4 - - 0.0
05/06:30am 2.8 -0.1 1.2 89 0.6 NW 6 7 3 4 - - 0.0
05/06:00am 3.2 0.3 1.7 90 0.6 WNW 6 7 3 4 - - 0.0
05/05:30am 3.3 1.1 1.2 86 0.8 NW 2 7 1 4 - - 0.0
05/05:00am 3.8 0.9 1.7 86 0.8 NW 6 9 3 5 - - 0.0
05/04:30am 3.9 1.0 1.6 85 0.9 NW 6 11 3 6 - - 0.0
05/04:00am 4.2 1.1 1.4 82 1.1 NW 7 11 4 6 - - 0.0
05/03:30am 4.4 1.3 1.1 79 1.3 NNW 7 11 4 6 - - 0.0
05/03:00am 4.2 1.2 0.9 79 1.3 NNW 6 7 3 4 - - 0.0
05/02:30am 4.2 1.9 0.7 78 1.3 NW 2 6 1 3 - - 0.0
05/02:00am 4.6 2.8 0.9 77 1.4 CALM 0 2 0 1 - - 0.0
05/01:30am 5.1 2.0 1.2 76 1.5 NW 7 9 4 5 - - 0.0
05/01:00am 5.1 2.0 1.4 77 1.5 NW 7 9 4 5 - - 0.0
05/12:30am 5.0 3.2 1.5 78 1.4 CALM 0 0 0 0 - - 0.0
05/12:00am 5.1 2.1 0.9 74 1.6 NW 6 7 3 4 - - 0.0
 
Date/Time
EST
Temp
°C
App
Temp
°C
Dew
Point
Rel
Hum
%
Delta-T
°C
Wind Press
QNH
hPa
Press
MSL
hPa
Rain
since 9 am
mm
Dir
 
Spd
km/h
Gust
km/h
Spd
kts
Gust
kts
04/11:30pm 6.1 3.1 1.1 70 2.0 NW 6 7 3 4 - - 0.0
04/11:00pm 6.2 3.1 1.1 70 2.0 NW 7 9 4 5 - - 0.0
04/10:30pm 6.7 3.8 1.6 70 2.1 WNW 6 9 3 5 - - 0.0
04/10:00pm 5.9 2.9 2.2 77 1.5 WNW 7 9 4 5 - - 0.0
04/09:30pm 5.1 2.1 1.9 80 1.3 NW 7 11 4 6 - - 0.0
04/09:00pm 4.5 2.5 2.5 87 0.8 N 2 6 1 3 - - 0.0
04/08:30pm 4.1 2.4 2.1 87 0.8 CALM 0 0 0 0 - - 0.0
04/08:00pm 4.7 3.2 2.9 88 0.7 CALM 0 0 0 0 - - 0.0
04/07:30pm 5.2 3.7 3.2 87 0.8 CALM 0 0 0 0 - - 0.0
04/07:00pm 5.6 4.1 3.1 84 1.0 CALM 0 0 0 0 - - 0.0
04/06:30pm 6.1 4.7 3.4 83 1.1 CALM 0 0 0 0 - - 0.0
04/06:00pm 7.3 5.7 2.6 72 2.0 CALM 0 0 0 0 - - 0.0
04/05:30pm 8.7 7.1 2.3 64 2.7 CALM 0 0 0 0 - - 0.0
04/05:00pm 10.6 7.3 2.7 58 3.4 SE 9 13 5 7 - - 0.0
04/04:30pm 12.0 8.7 2.5 52 4.1 SE 9 11 5 6 - - 0.0
04/04:00pm 13.0 8.9 2.3 48 4.7 ESE 13 17 7 9 - - 0.0
04/03:30pm 15.0 11.7 -1.1 33 6.6 SW 6 11 3 6 - - 0.0
04/03:00pm 14.7 10.8 -1.8 32 6.7 WSW 9 13 5 7 - - 0.0

Other Formats:

Comma delimited format used in spreadsheet applications
http://www.bom.gov.au/fwo/IDN60801/IDN60801.94766.axf

JavaScript Object Notation format (JSON) in row-major order
http://www.bom.gov.au/fwo/IDN60801/IDN60801.94766.json